Time;durP1;ratioP1;P1;durP2;ratioP2;P2;SDS_P1;SDS_P2;PMS_P1;PMS_P2;Temp;Humidity;BMP_temperature;BMP_pressure;BME280_temperature;BME280_humidity;BME280_pressure;Samples;Min_cycle;Max_cycle;Signal;HPM_P1;HPM_P2
2021/01/15 06:38:18;;;;;;;38.30;21.07;;;0.80;99.90;;;-143.32;100.00;97597.94;4533770;31;20449;-92
2021/01/15 06:41:12;;;;;;;37.63;21.63;;;0.70;99.90;;;-143.32;100.00;97610.22;4568465;31;20514;-90
2021/01/15 06:47:32;;;;;;;35.90;20.20;;;0.80;99.90;;;-143.32;100.00;97597.94;4658659;30;20951;-92
2021/01/15 06:54:57;;;;;;;38.63;22.07;;;0.90;99.90;;;-143.32;100.00;97555.00;4683387;30;20427;-91
2021/01/15 07:02:12;;;;;;;35.90;21.40;;;0.80;99.90;;;-143.32;100.00;97622.50;4580177;31;20465;-91
2021/01/15 07:57:11;;;;;;;43.30;22.73;;;0.60;99.90;;;-143.32;100.00;97585.69;4501562;31;20817;-89
2021/01/15 08:04:10;;;;;;;40.00;23.70;;;0.60;99.90;;;-143.32;100.00;97622.50;4599646;31;20452;-91
2021/01/15 08:06:42;;;;;;;44.10;22.97;;;0.60;99.90;;;-143.32;100.00;97610.22;4599531;31;20458;-90
2021/01/15 08:09:12;;;;;;;44.33;23.33;;;0.70;99.90;;;-143.32;100.00;97509.97;4610955;30;20592;-91
2021/01/15 08:12:18;;;;;;;;;;;;;;;;;;;;;
2021/01/15 08:16:07;;;;;;;41.10;22.63;;;0.60;99.90;;;-143.32;100.00;97573.41;4663281;30;20455;-88
2021/01/15 08:18:44;;;;;;;;;;;;;;;;;;;;;
2021/01/15 08:25:25;;;;;;;42.20;23.03;;;0.70;99.90;;;-143.32;100.00;97536.56;4682232;30;20862;-90
2021/01/15 08:28:00;;;;;;;39.20;21.77;;;0.70;99.90;;;-143.32;100.00;97581.59;4668079;30;20524;-89
2021/01/15 08:30:34;;;;;;;39.30;22.77;;;0.70;99.90;;;-143.32;100.00;97620.47;4668288;30;20477;-90
2021/01/15 08:33:03;;;;;;;41.17;22.27;;;0.70;99.90;;;-143.32;100.00;97561.13;4669157;30;20449;-91
2021/01/15 08:35:38;;;;;;;41.43;23.20;;;0.70;99.90;;;-143.32;100.00;97591.81;4669963;30;21993;-90
2021/01/15 08:38:24;;;;;;;;;;;;;;;;;;;;;
2021/01/15 08:41:02;;;;;;;38.07;23.00;;;0.80;99.90;;;-143.32;100.00;97604.09;4637356;30;20463;-90
2021/01/15 08:43:36;;;;;;;48.97;24.20;;;0.90;99.90;;;-143.32;100.00;97585.69;4670542;30;20465;-90
2021/01/15 08:46:17;;;;;;;41.40;22.50;;;0.80;99.90;;;-143.32;100.00;97577.50;4685694;30;20533;-90
2021/01/15 08:49:16;;;;;;;;;;;;;;;;;;;;;
2021/01/15 08:52:13;;;;;;;44.47;21.47;;;0.80;99.90;;;-143.32;100.00;97550.91;4667588;30;20903;-91
2021/01/15 08:55:31;;;;;;;38.87;21.87;;;0.90;99.90;;;-143.32;100.00;97557.03;4668709;30;20489;-90
2021/01/15 08:58:11;;;;;;;41.60;21.83;;;0.90;99.90;;;-143.32;100.00;97575.44;4650532;30;20496;-91
2021/01/15 09:01:10;;;;;;;40.10;22.93;;;0.90;99.90;;;-143.32;100.00;97600.00;4668021;30;20571;-91
2021/01/15 09:03:41;;;;;;;42.57;20.30;;;1.00;99.90;;;-143.32;100.00;97618.41;4668729;30;20472;-91
2021/01/15 09:10:13;;;;;;;39.70;20.43;;;0.90;99.90;;;-143.32;100.00;97563.16;4630592;31;20490;-90
2021/01/15 09:12:45;;;;;;;37.73;21.20;;;0.90;99.90;;;-143.32;100.00;97565.22;4632613;31;20467;-92
2021/01/15 09:15:26;;;;;;;41.60;22.17;;;0.90;99.90;;;-143.32;100.00;97606.13;4661287;30;20480;-90
2021/01/15 11:19:17;;;;;;;41.47;20.60;;;1.60;99.90;;;-143.32;99.28;97573.41;4504108;31;20453;-94
2021/01/15 11:21:44;;;;;;;39.23;21.00;;;1.60;94.00;;;-143.32;99.47;97536.56;4523874;31;20560;-91
2021/01/15 11:24:11;;;;;;;33.73;19.13;;;1.50;99.90;;;-143.32;99.59;97534.53;4625326;30;20479;-90
2021/01/15 11:26:38;;;;;;;36.70;21.23;;;1.60;99.90;;;-143.32;99.38;97557.03;4704085;30;20836;-91
2021/01/15 11:29:08;;;;;;;36.23;20.10;;;1.70;99.90;;;-143.32;99.18;97577.50;4703855;30;20952;-90
2021/01/15 11:31:50;;;;;;;40.57;21.87;;;1.70;84.10;;;-143.32;98.84;97571.34;4704074;30;20467;-89
2021/01/15 11:34:21;;;;;;;34.90;19.73;;;1.90;1.00;;;-143.32;97.70;97583.63;4704389;30;20956;-91
2021/01/15 11:36:52;;;;;;;35.77;19.90;;;1.80;1.00;;;-143.32;97.78;97540.66;4705078;30;20792;-90
2021/01/15 11:39:19;;;;;;;40.70;22.10;;;1.80;1.00;;;-143.32;98.21;97555.00;4704343;30;20434;-88
2021/01/15 11:41:52;;;;;;;36.50;20.20;;;1.70;1.00;;;-143.32;97.82;97552.94;4703393;30;20501;-89
2021/01/15 11:44:20;;;;;;;38.60;19.87;;;1.80;1.00;;;-143.32;97.53;97532.47;4704366;30;20428;-91
2021/01/15 11:53:45;;;;;;;39.13;21.30;;;1.80;1.00;;;-143.32;97.37;97561.13;4703037;30;21077;-88
2021/01/15 11:56:12;;;;;;;40.13;21.73;;;1.80;99.90;;;-143.32;97.57;97536.56;4703144;30;20467;-89
2021/01/15 11:58:39;;;;;;;39.93;22.27;;;1.90;1.00;;;-143.32;98.50;97569.31;4703354;30;20451;-88
2021/01/15 12:04:50;;;;;;;43.30;23.10;;;1.80;1.00;;;-143.32;99.34;97563.16;4703134;30;20804;-90
2021/01/15 12:07:16;;;;;;;50.13;24.80;;;1.70;69.00;;;-143.32;99.22;97555.00;4703446;30;20471;-89
2021/01/15 12:09:43;;;;;;;40.23;22.30;;;1.70;95.70;;;-143.32;98.85;97567.25;4702925;30;20944;-92
2021/01/15 12:12:10;;;;;;;42.17;21.33;;;1.70;1.00;;;-143.32;99.25;97542.72;4703314;30;20867;-91
2021/01/15 12:14:41;;;;;;;41.43;21.73;;;1.60;13.20;;;-143.32;99.49;97595.91;4702860;30;20475;-93
2021/01/15 12:17:08;;;;;;;39.77;24.00;;;1.60;91.10;;;-143.32;100.00;97575.44;4703818;30;20477;-91
2021/01/15 12:19:35;;;;;;;42.67;23.27;;;1.60;99.90;;;-143.32;100.00;97571.34;4703104;30;20958;-90
2021/01/15 12:22:03;;;;;;;44.10;24.40;;;1.60;99.90;;;-143.32;100.00;97532.47;4702718;30;20499;-92
2021/01/15 12:24:41;;;;;;;40.33;23.27;;;1.60;99.90;;;-143.32;100.00;97552.94;4702717;30;20471;-90
2021/01/15 12:27:08;;;;;;;43.57;22.23;;;1.60;99.90;;;-143.32;100.00;97530.44;4705603;30;20927;-90
2021/01/15 12:29:35;;;;;;;41.93;23.13;;;1.60;99.90;;;-143.32;100.00;97567.25;4705277;30;20465;-92
2021/01/15 12:32:02;;;;;;;49.93;23.80;;;1.50;99.90;;;-143.32;100.00;97573.41;4703526;30;20474;-91
2021/01/15 12:34:29;;;;;;;41.00;22.03;;;1.40;99.90;;;-143.32;100.00;97550.91;4702954;30;20521;-90
2021/01/15 12:36:55;;;;;;;49.07;23.13;;;1.40;99.90;;;-143.32;100.00;97561.13;4702767;30;20491;-90
2021/01/15 12:39:26;;;;;;;38.93;22.33;;;1.40;99.90;;;-143.32;100.00;97587.72;4702920;30;20529;-92
2021/01/15 12:41:53;;;;;;;48.07;24.97;;;1.40;99.90;;;-143.32;100.00;97569.31;4702463;30;20503;-90
2021/01/15 12:48:01;;;;;;;40.03;23.10;;;1.30;99.90;;;-143.32;100.00;97561.13;4702422;30;20511;-92
2021/01/15 12:50:29;;;;;;;39.80;21.90;;;1.50;99.90;;;-143.32;100.00;97501.78;4702690;30;20456;-91
2021/01/15 12:52:57;;;;;;;35.53;21.53;;;1.60;99.90;;;-143.32;100.00;97546.81;4702318;30;20823;-90
2021/01/15 12:55:25;;;;;;;50.43;24.47;;;1.60;99.90;;;-143.32;100.00;97555.00;4703257;30;20467;-88
2021/01/15 12:57:53;;;;;;;40.17;21.70;;;1.50;99.90;;;-143.32;100.00;97567.25;4703459;30;20498;-88
2021/01/15 13:00:21;;;;;;;41.93;22.60;;;1.60;99.90;;;-143.32;99.59;97536.56;4703165;30;20470;-90
2021/01/15 13:03:27;;;;;;;40.93;20.73;;;1.60;99.90;;;-143.32;99.90;97573.41;4702332;30;20511;-89
2021/01/15 13:05:56;;;;;;;36.57;20.33;;;1.60;99.90;;;-143.32;99.22;97550.91;4701914;30;20486;-92
2021/01/15 13:09:45;;;;;;;36.70;20.40;;;1.60;99.90;;;-143.32;99.33;97555.00;4703478;30;20474;-88
2021/01/15 13:12:49;;;;;;;38.20;19.70;;;1.50;99.90;;;-143.32;99.36;97567.25;4702963;30;20471;-90
2021/01/15 13:15:16;;;;;;;37.93;20.37;;;1.60;99.90;;;-143.32;99.26;97532.47;4702122;30;20859;-88
2021/01/15 13:17:54;;;;;;;39.63;20.27;;;1.50;99.90;;;-143.32;99.49;97540.66;4701888;30;20470;-89
2021/01/15 13:20:22;;;;;;;37.40;20.50;;;1.50;99.90;;;-143.32;99.77;97557.03;4702960;30;20455;-91
2021/01/15 13:23:00;;;;;;;39.23;20.67;;;1.50;99.90;;;-143.32;99.86;97561.13;4702026;30;20502;-87
2021/01/15 13:29:17;;;;;;;38.43;21.23;;;1.40;99.90;;;-143.32;100.00;97575.44;4702084;30;20941;-93
2021/01/15 13:31:44;;;;;;;44.40;22.70;;;1.50;99.90;;;-143.32;99.96;97555.00;4703752;30;20474;-93
2021/01/15 13:34:11;;;;;;;42.33;22.13;;;1.50;99.90;;;-143.32;100.00;97538.63;4702715;30;20541;-94
2021/01/15 13:36:38;;;;;;;40.93;20.37;;;1.40;99.90;;;-143.32;99.89;97583.63;4701894;30;20455;-94
2021/01/15 13:39:06;;;;;;;44.30;21.50;;;1.50;99.90;;;-143.32;100.00;97526.34;4703157;30;20459;-94
2021/01/15 13:41:38;;;;;;;38.23;21.13;;;1.40;99.90;;;-143.32;100.00;97567.25;4702620;30;20472;-93
2021/01/15 13:44:06;;;;;;;41.70;21.30;;;1.50;99.90;;;-143.32;100.00;97606.13;4702435;30;20463;-95
2021/01/15 13:46:35;;;;;;;37.30;21.90;;;1.50;99.90;;;-143.32;100.00;97550.91;4701759;30;20464;-95
2021/01/15 13:49:03;;;;;;;46.77;20.87;;;1.50;99.90;;;-143.32;100.00;97507.94;4703571;30;20455;-93
2021/01/15 13:51:30;;;;;;;35.23;19.93;;;1.50;99.90;;;-143.32;99.67;97546.81;4702800;30;20812;-92
2021/01/15 13:53:57;;;;;;;36.60;20.40;;;1.60;99.90;;;-143.32;99.80;97581.59;4701520;30;20878;-93
2021/01/15 13:56:24;;;;;;;36.07;20.03;;;1.60;99.90;;;-143.32;99.75;97595.91;4701172;30;20997;-93
2021/01/15 13:58:51;;;;;;;34.57;19.10;;;1.60;99.90;;;-143.32;99.70;97565.22;4701217;30;20539;-92
2021/01/15 14:01:23;;;;;;;35.40;18.67;;;1.60;99.90;;;-143.32;99.77;97542.72;4701264;30;20489;-88
2021/01/15 14:03:50;;;;;;;35.53;19.13;;;1.60;99.90;;;-143.32;99.63;97530.44;4701335;30;20542;-90
2021/01/15 14:06:17;;;;;;;32.77;17.67;;;1.60;99.90;;;-143.32;98.27;97569.31;4701131;30;20862;-91
2021/01/15 14:08:53;;;;;;;32.87;18.77;;;1.70;11.40;;;-143.32;98.97;97548.84;4700952;30;20471;-89
2021/01/15 14:11:21;;;;;;;32.13;17.70;;;1.70;10.30;;;-143.32;98.23;97559.06;4701402;30;20652;-91
2021/01/15 14:13:47;;;;;;;27.57;16.97;;;1.70;7.00;;;-143.32;98.04;97548.84;4701275;30;20464;-90
2021/01/15 14:16:14;;;;;;;32.83;18.20;;;1.60;1.00;;;-143.32;98.75;97528.38;4698888;30;22242;-90
2021/01/15 14:18:41;;;;;;;31.40;17.83;;;1.60;1.00;;;-143.32;98.80;97536.56;4683411;30;20476;-91
2021/01/15 14:21:08;;;;;;;29.00;16.83;;;1.60;73.70;;;-143.32;98.57;97548.84;4683691;30;20487;-92
2021/01/15 14:23:35;;;;;;;30.47;16.53;;;1.50;2.00;;;-143.32;98.20;97573.41;4683696;30;20507;-91
2021/01/15 14:26:02;;;;;;;31.63;17.73;;;1.60;1.00;;;-143.32;98.32;97540.66;4693979;30;20474;-91
2021/01/15 14:28:28;;;;;;;27.63;16.20;;;1.70;1.00;;;-143.32;98.34;97520.22;4707562;30;20447;-91
2021/01/15 14:44:59;;;;;;;34.10;16.80;;;1.60;52.50;;;-143.32;98.37;97512.03;5071986;24;20913;-90
2021/01/15 14:47:26;;;;;;;30.60;16.97;;;1.60;1.00;;;-143.32;98.50;97532.47;4683707;30;20456;-88
2021/01/15 14:49:52;;;;;;;28.37;16.23;;;1.60;1.00;;;-143.32;98.89;97575.44;4682990;30;20478;-88
2021/01/15 14:52:25;;;;;;;29.13;15.53;;;1.60;1.00;;;-143.32;99.18;97516.13;4684291;30;20468;-86
2021/01/15 14:54:51;;;;;;;32.20;17.27;;;1.50;53.50;;;-143.32;99.12;97604.09;4693368;30;20448;-92
2021/01/15 14:57:18;;;;;;;27.23;16.10;;;1.50;78.10;;;-143.32;99.41;97532.47;4696402;30;20471;-93
2021/01/15 14:59:45;;;;;;;26.17;15.00;;;1.70;87.90;;;-143.32;99.48;97575.44;4687121;30;20464;-93
2021/01/15 15:02:12;;;;;;;25.07;15.50;;;1.50;99.90;;;-143.32;99.00;97548.84;4686548;30;20507;-94
2021/01/15 15:04:47;;;;;;;25.73;15.30;;;1.60;52.30;;;-143.32;98.75;97509.97;4693140;30;20535;-91
2021/01/15 15:07:14;;;;;;;24.95;15.75;;;1.50;7.80;;;-143.32;99.20;97561.13;4693330;30;20451;-94
2021/01/15 15:10:31;;;;;;;25.53;15.63;;;1.50;42.40;;;-143.32;98.47;97604.09;4697523;30;20209;-93
2021/01/15 15:12:58;;;;;;;28.27;15.53;;;1.60;1.00;;;-143.32;99.14;97593.84;4713074;30;20495;-94
2021/01/15 15:15:25;;;;;;;28.33;15.60;;;1.40;1.00;;;-143.32;98.79;97522.25;4710037;30;20460;-92
2021/01/15 15:17:53;;;;;;;22.87;15.40;;;1.40;1.00;;;-143.32;98.70;97518.16;4712338;30;20578;-94
2021/01/15 15:24:01;;;;;;;23.37;15.03;;;1.50;1.00;;;-143.32;98.19;97563.16;4683949;30;20439;-92
2021/01/15 15:26:28;;;;;;;25.33;14.77;;;1.50;1.00;;;-143.32;98.60;97573.41;4685725;30;20457;-93
2021/01/15 15:28:56;;;;;;;22.80;13.93;;;1.40;1.00;;;-143.32;98.58;97555.00;4684085;30;20535;-93
2021/01/15 15:35:06;;;;;;;23.63;13.83;;;1.40;1.00;;;-143.32;98.58;97538.63;4683909;30;20574;-94
2021/01/15 15:37:33;;;;;;;25.10;15.07;;;1.30;15.00;;;-143.32;98.66;97579.53;4685218;30;20471;-92
2021/01/15 15:40:00;;;;;;;31.10;14.97;;;1.50;1.00;;;-143.32;98.55;97538.63;4685644;30;20997;-92
2021/01/15 15:42:27;;;;;;;32.07;16.50;;;1.40;1.50;;;-143.32;98.86;97557.03;4684404;30;20500;-93
2021/01/15 15:44:53;;;;;;;25.27;15.57;;;1.40;1.00;;;-143.32;99.11;97587.72;4684555;30;20853;-92
2021/01/15 15:47:20;;;;;;;23.63;14.73;;;1.30;38.30;;;-143.32;99.44;97559.06;4684695;30;20464;-93
2021/01/15 15:53:35;;;;;;;31.63;16.90;;;1.20;99.90;;;-143.32;99.79;97614.31;4684281;30;20794;-92
2021/01/15 15:56:02;;;;;;;28.50;15.70;;;1.20;99.90;;;-143.32;100.00;97579.53;4684639;30;20460;-91
2021/01/15 15:58:28;;;;;;;29.17;15.37;;;1.20;99.90;;;-143.32;100.00;97600.00;4688800;30;20480;-92
2021/01/15 16:00:55;;;;;;;23.60;13.70;;;1.20;99.90;;;-143.32;99.25;97593.84;4687941;30;20444;-92
2021/01/15 16:03:22;;;;;;;23.00;13.40;;;1.20;99.90;;;-143.32;97.35;97567.25;4687142;30;20511;-94
2021/01/15 16:09:30;;;;;;;26.57;14.27;;;1.40;1.00;;;-143.32;97.32;97542.72;4686600;30;20420;-91
2021/01/15 16:12:00;;;;;;;20.90;13.47;;;1.30;99.90;;;-143.32;96.19;97555.00;4686411;30;20539;-91
2021/01/15 16:14:30;;;;;;;33.20;14.37;;;1.40;99.90;;;-143.32;95.41;97550.91;4687829;30;20490;-93
2021/01/15 16:16:57;;;;;;;22.13;12.93;;;1.50;99.90;;;-143.32;95.42;97567.25;4690685;30;20471;-92
2021/01/15 16:19:26;;;;;;;18.00;12.27;;;1.30;1.00;;;-143.32;95.06;97571.34;4689648;30;20968;-92
2021/01/15 16:21:53;;;;;;;19.23;11.50;;;1.40;99.90;;;-143.32;91.83;97587.72;4687767;30;20484;-92
2021/01/15 16:34:56;;;;;;;13.67;8.83;;;1.30;99.90;;;-143.32;88.00;97565.22;5087793;24;20868;-91
2021/01/15 16:57:27;;;;;;;16.37;7.83;;;1.10;1.00;;;-143.32;85.13;97536.56;4811700;24;20495;-92
2021/01/15 17:02:40;;;;;;;13.87;8.30;;;1.10;1.00;;;-143.32;86.07;97563.16;4692109;30;20511;-93
2021/01/15 17:08:12;;;;;;;12.83;8.27;;;1.00;96.50;;;-143.32;86.04;97540.66;4795425;24;20511;-94
2021/01/15 17:54:45;;;;;;;19.90;10.83;;;0.80;1.00;;;-143.32;89.42;97626.59;4526463;31;20669;-90
2021/01/15 17:57:18;;;;;;;21.87;10.97;;;0.70;12.70;;;-143.32;89.34;97579.53;4621567;31;20582;-93
2021/01/15 17:59:45;;;;;;;17.20;10.53;;;0.70;99.90;;;-143.32;89.44;97612.28;4677927;30;20503;-92
2021/01/15 18:02:12;;;;;;;22.80;11.40;;;0.80;99.90;;;-143.32;89.37;97561.13;4688695;30;20512;-93
2021/01/15 18:08:20;;;;;;;21.60;12.10;;;0.70;99.30;;;-143.32;90.16;97565.22;4689099;30;20463;-93
2021/01/15 18:10:55;;;;;;;20.77;12.20;;;0.80;99.90;;;-143.32;90.72;97597.94;4695091;30;20468;-93
2021/01/15 18:13:24;;;;;;;26.57;12.63;;;0.60;1.00;;;-143.32;90.34;97614.31;4695332;30;20472;-92
2021/01/15 18:15:55;;;;;;;26.73;12.67;;;0.70;99.90;;;-143.32;89.56;97563.16;4694528;30;20487;-91
2021/01/15 18:18:22;;;;;;;25.57;15.03;;;0.70;99.90;;;-143.32;89.57;97583.63;4694690;30;20463;-93
2021/01/15 18:24:31;;;;;;;18.10;9.87;;;0.80;1.00;;;-143.32;88.45;97583.63;4691370;30;20444;-92
2021/01/15 18:31:00;;;;;;;19.23;10.97;;;0.80;99.90;;;-143.32;88.15;97565.22;4684677;30;20443;-92
2021/01/15 18:33:28;;;;;;;16.60;9.87;;;0.80;1.00;;;-143.32;87.60;97569.31;4684672;30;20562;-93
2021/01/15 18:35:55;;;;;;;18.10;10.83;;;0.80;99.90;;;-143.32;87.69;97591.81;4684630;30;20792;-93
2021/01/15 18:38:32;;;;;;;20.13;11.33;;;0.80;99.90;;;-143.32;87.93;97628.63;4684542;30;20495;-92
2021/01/15 18:41:04;;;;;;;14.07;9.00;;;0.80;99.90;;;-143.32;87.87;97561.13;4686656;30;20957;-92
2021/01/15 18:43:32;;;;;;;16.57;9.37;;;0.80;99.90;;;-143.32;87.28;97595.91;4689835;30;20496;-93
2021/01/15 18:46:19;;;;;;;;;;;;;;;;;;;;;
2021/01/15 18:48:50;;;;;;;19.93;9.80;;;0.80;99.90;;;-143.32;88.30;97565.22;4678186;30;20909;-91
2021/01/15 18:51:22;;;;;;;18.53;10.43;;;0.80;1.00;;;-143.32;88.28;97597.94;4684106;30;20468;-92
2021/01/15 18:57:31;;;;;;;20.77;10.70;;;0.80;1.00;;;-143.32;88.18;97563.16;4684037;30;20790;-92
2021/01/15 19:03:40;;;;;;;17.30;10.57;;;0.80;99.90;;;-143.32;88.23;97593.84;4685606;30;20499;-92
2021/01/15 19:06:09;;;;;;;17.90;10.83;;;0.90;99.90;;;-143.32;88.36;97569.31;4686787;30;20518;-92
2021/01/15 19:12:25;;;;;;;19.53;10.20;;;0.80;1.00;;;-143.32;88.16;97567.25;4685378;30;20427;-94
2021/01/15 19:14:52;;;;;;;19.80;10.97;;;0.80;1.00;;;-143.32;88.92;97604.09;4685081;30;20476;-93
2021/01/15 19:17:20;;;;;;;23.93;10.87;;;0.80;1.00;;;-143.32;88.69;97561.13;4690243;30;20448;-94
2021/01/15 19:19:50;;;;;;;22.93;11.93;;;0.80;1.00;;;-143.32;89.06;97561.13;4689637;30;20464;-92
2021/01/15 19:22:27;;;;;;;;;;;;;;;;;;;;;
2021/01/15 19:24:54;;;;;;;20.30;11.73;;;0.80;1.00;;;-143.32;88.90;97561.13;4684253;30;21032;-92
2021/01/15 19:27:21;;;;;;;19.33;11.23;;;0.80;1.00;;;-143.32;89.06;97557.03;4690326;30;20460;-93
2021/01/15 19:29:54;;;;;;;24.50;11.73;;;0.80;1.00;;;-143.32;89.93;97573.41;4696235;30;20499;-93
2021/01/15 19:32:29;;;;;;;24.83;12.83;;;0.70;99.90;;;-143.32;89.73;97563.16;4695285;30;20440;-93
2021/01/15 19:34:57;;;;;;;18.23;10.70;;;0.70;99.90;;;-143.32;90.22;97567.25;4701426;30;20463;-92
2021/01/15 19:41:06;;;;;;;21.83;11.33;;;0.70;99.90;;;-143.32;90.43;97597.94;4697794;30;20572;-94
2021/01/15 19:43:33;;;;;;;28.83;12.80;;;0.70;1.00;;;-143.32;90.73;97628.63;4699929;30;20500;-93
2021/01/15 19:46:10;;;;;;;21.60;12.40;;;0.60;1.00;;;-143.32;90.21;97575.44;4702777;30;20460;-94
2021/01/15 19:48:48;;;;;;;28.93;12.63;;;0.70;1.00;;;-143.32;90.92;97555.00;4699345;30;20495;-93
2021/01/15 19:51:21;;;;;;;25.53;13.00;;;0.70;1.00;;;-143.32;90.99;97571.34;4694350;30;20463;-92
2021/01/15 19:53:48;;;;;;;22.67;12.10;;;0.70;1.00;;;-143.32;91.00;97571.34;4686268;30;20475;-92
2021/01/15 19:56:22;;;;;;;21.63;13.00;;;0.80;1.00;;;-143.32;90.35;97595.91;4686337;30;20817;-92
2021/01/15 19:58:49;;;;;;;24.37;13.60;;;0.60;1.00;;;-143.32;90.34;97577.50;4686387;30;20443;-94
2021/01/15 20:01:16;;;;;;;27.53;12.80;;;0.70;1.00;;;-143.32;90.76;97571.34;4686606;30;20456;-92
2021/01/15 20:03:50;;;;;;;26.43;13.27;;;0.70;1.00;;;-143.32;90.50;97542.72;4685926;30;21089;-94
2021/01/15 20:06:17;;;;;;;17.77;11.80;;;0.70;1.00;;;-143.32;90.70;97557.03;4686220;30;20464;-93
2021/01/15 20:08:44;;;;;;;18.63;11.13;;;0.80;1.00;;;-143.32;91.21;97577.50;4686229;30;20983;-93
2021/01/15 20:11:11;;;;;;;24.40;12.50;;;0.70;1.00;;;-143.32;90.86;97573.41;4686178;30;20522;-92
2021/01/15 20:13:42;;;;;;;24.20;12.90;;;0.70;51.10;;;-143.32;89.96;97587.72;4686770;30;20476;-92
2021/01/15 20:16:22;;;;;;;28.60;14.07;;;0.70;99.90;;;-143.32;90.15;97573.41;4687010;30;20475;-89
2021/01/15 20:19:12;;;;;;;35.07;15.70;;;0.70;99.90;;;-143.32;90.58;97565.22;4693653;30;20463;-87
2021/01/15 20:22:03;;;;;;;30.37;15.23;;;0.70;99.90;;;-143.32;89.99;97567.25;4688786;30;20460;-90
2021/01/15 20:24:44;;;;;;;29.47;14.13;;;0.70;99.90;;;-143.32;90.33;97512.03;4692634;30;20884;-92
2021/01/15 20:27:24;;;;;;;;;;;;;;;;;;;;;
2021/01/15 20:29:57;;;;;;;35.27;14.27;;;0.70;99.90;;;-143.32;90.92;97614.31;4686331;30;20456;-93
2021/01/15 20:32:32;;;;;;;28.67;13.80;;;0.60;1.00;;;-143.32;90.96;97587.72;4687019;30;20456;-92
2021/01/15 20:38:53;;;;;;;19.90;11.90;;;0.50;1.00;;;-143.32;90.60;97567.25;4689778;30;20491;-92
2021/01/15 20:44:13;;;;;;;26.40;12.30;;;0.60;1.00;;;-143.32;91.20;97575.44;4689197;30;20515;-91
2021/01/15 20:46:45;;;;;;;20.10;11.47;;;0.60;1.00;;;-143.32;92.24;97622.50;4690708;30;20852;-92
2021/01/15 20:49:12;;;;;;;26.90;13.00;;;0.70;99.90;;;-143.32;92.15;97577.50;4686802;30;20528;-92
2021/01/15 20:55:23;;;;;;;20.50;12.27;;;0.50;1.00;;;-143.32;92.26;97557.03;4686920;30;20850;-92
2021/01/15 20:58:20;;;;;;;34.50;14.70;;;0.50;1.00;;;-143.32;92.73;97567.25;4688658;30;20460;-92
2021/01/15 21:01:00;;;;;;;23.33;12.30;;;0.50;99.90;;;-143.32;92.27;97612.28;4691110;30;20464;-91
2021/01/15 21:03:26;;;;;;;18.53;11.70;;;0.70;4.30;;;-143.32;91.92;97577.50;4687068;30;20499;-93
2021/01/15 21:05:53;;;;;;;20.90;12.67;;;0.60;99.90;;;-143.32;92.17;97565.22;4686401;30;20452;-92
2021/01/15 21:08:20;;;;;;;21.33;12.13;;;0.50;1.00;;;-143.32;92.14;97577.50;4686251;30;20465;-92
2021/01/15 21:11:29;;;;;;;;;;;;;;;;;;;;;
2021/01/15 21:14:03;;;;;;;23.97;12.80;;;0.50;1.00;;;-143.32;93.25;97591.81;4683084;30;20543;-90
2021/01/15 21:16:30;;;;;;;23.10;13.57;;;0.40;1.00;;;-143.32;93.10;97642.97;4689359;30;20440;-92
2021/01/15 21:18:57;;;;;;;21.87;12.97;;;0.30;1.00;;;-143.32;93.69;97589.75;4689543;30;20552;-92
2021/01/15 21:21:36;;;;;;;23.47;13.43;;;0.30;99.90;;;-143.32;93.46;97589.75;4687058;30;20584;-91
2021/01/15 21:24:04;;;;;;;22.17;12.80;;;0.30;99.90;;;-143.32;93.49;97579.53;4689085;30;20492;-91
2021/01/15 21:26:30;;;;;;;24.93;14.00;;;0.30;24.50;;;-143.32;93.55;97602.03;4684539;30;20963;-91
2021/01/15 21:29:08;;;;;;;23.90;13.73;;;0.30;1.00;;;-143.32;93.54;97597.94;4684681;30;20460;-93
2021/01/15 21:31:45;;;;;;;26.37;14.60;;;0.30;99.90;;;-143.32;93.20;97577.50;4685731;30;20971;-92
2021/01/15 21:38:13;;;;;;;28.73;13.50;;;0.30;99.90;;;-143.32;94.06;97606.13;4684825;30;20523;-92
2021/01/15 21:40:41;;;;;;;26.00;14.77;;;0.40;1.00;;;-143.32;94.25;97600.00;4684659;30;20579;-93
2021/01/15 21:43:16;;;;;;;26.17;14.43;;;0.30;99.90;;;-143.32;93.84;97597.94;4685043;30;20553;-91
2021/01/15 21:46:09;;;;;;;25.13;13.47;;;0.30;1.00;;;-143.32;94.14;97573.41;4685346;30;20511;-93
2021/01/15 21:48:39;;;;;;;21.63;12.50;;;0.30;1.00;;;-143.32;94.70;97589.75;4684023;30;20956;-91
2021/01/15 21:59:25;;;;;;;23.50;13.20;;;0.30;1.00;;;-143.32;94.60;97626.59;4683742;30;20456;-91
2021/01/15 22:01:53;;;;;;;28.20;14.43;;;0.20;1.00;;;-143.32;94.49;97600.00;4684197;30;20936;-90
2021/01/15 22:04:21;;;;;;;28.60;15.73;;;0.20;42.20;;;-143.32;94.66;97616.38;4684174;30;20508;-92
2021/01/15 22:06:48;;;;;;;22.90;12.90;;;0.20;99.90;;;-143.32;94.79;97608.19;4684590;30;20507;-91
2021/01/15 22:09:30;;;;;;;22.93;12.30;;;0.40;1.00;;;-143.32;95.41;97604.09;4684157;30;20468;-92
2021/01/15 22:12:01;;;;;;;24.93;13.93;;;0.20;1.00;;;-143.32;94.99;97587.72;4684168;30;20930;-92
2021/01/15 22:14:28;;;;;;;22.93;12.80;;;0.20;1.00;;;-143.32;94.73;97610.22;4684225;30;20468;-93
2021/01/15 22:16:56;;;;;;;26.40;13.60;;;0.10;99.90;;;-143.32;95.05;97606.13;4684355;30;20471;-92
2021/01/15 22:19:22;;;;;;;25.10;12.20;;;0.20;99.90;;;-143.32;95.12;97602.03;4683905;30;20480;-92
2021/01/15 22:21:51;;;;;;;22.77;12.73;;;0.20;99.90;;;-143.32;95.16;97591.81;4683790;30;20464;-93
2021/01/15 22:24:18;;;;;;;23.77;14.40;;;0.30;99.90;;;-143.32;94.63;97597.94;4683981;30;20507;-91
2021/01/15 22:26:48;;;;;;;22.17;12.73;;;0.10;99.90;;;-143.32;95.02;97585.69;4684047;30;20479;-92
2021/01/15 22:29:15;;;;;;;22.40;12.83;;;0.20;1.00;;;-143.32;95.00;97600.00;4683681;30;20459;-91
2021/01/15 22:31:45;;;;;;;34.70;14.50;;;0.10;74.80;;;-143.32;94.86;97577.50;4684227;30;20467;-91
2021/01/15 22:34:12;;;;;;;21.70;12.53;;;0.20;99.90;;;-143.32;94.80;97575.44;4683962;30;20472;-93
2021/01/15 22:36:39;;;;;;;19.03;12.20;;;0.30;99.90;;;-143.32;94.68;97593.84;4684281;30;20837;-93
2021/01/15 22:42:50;;;;;;;30.37;12.83;;;0.20;1.00;;;-143.32;95.04;97628.63;4683682;30;20614;-93
2021/01/15 22:45:16;;;;;;;30.13;13.33;;;0.30;99.90;;;-143.32;94.74;97593.84;4683380;30;20464;-91
2021/01/15 22:47:43;;;;;;;23.27;12.10;;;0.10;1.00;;;-143.32;94.63;97591.81;4684297;30;20538;-92
2021/01/15 22:50:12;;;;;;;23.57;12.93;;;0.30;99.90;;;-143.32;94.58;97585.69;4683377;30;20878;-94
2021/01/15 22:52:48;;;;;;;27.03;12.70;;;0.20;1.00;;;-143.32;94.43;97591.81;4684469;30;20472;-91
2021/01/15 22:55:18;;;;;;;30.13;12.50;;;0.20;18.70;;;-143.32;94.56;97559.06;4683483;30;20460;-93
2021/01/15 22:57:55;;;;;;;21.70;12.80;;;0.20;1.00;;;-143.32;94.24;97559.06;4684343;30;20503;-93
2021/01/15 23:00:32;;;;;;;;;;;;;;;;;;;;;
2021/01/15 23:02:59;;;;;;;27.40;12.43;;;0.30;99.90;;;-143.32;93.50;97569.31;4683307;30;20508;-92
2021/01/15 23:05:27;;;;;;;22.10;12.53;;;0.30;99.90;;;-143.32;93.92;97595.91;4683575;30;20460;-91
2021/01/15 23:07:57;;;;;;;28.83;13.80;;;0.20;1.00;;;-143.32;94.21;97591.81;4683435;30;20445;-92
2021/01/15 23:10:26;;;;;;;22.67;12.30;;;0.20;1.00;;;-143.32;93.64;97575.44;4684883;30;20467;-93
2021/01/15 23:12:54;;;;;;;24.47;12.77;;;0.20;99.90;;;-143.32;93.89;97593.84;4684259;30;20468;-93
2021/01/15 23:15:24;;;;;;;24.83;12.63;;;0.20;1.00;;;-143.32;94.48;97546.81;4683374;30;20837;-93
2021/01/15 23:17:52;;;;;;;28.23;12.80;;;0.20;99.90;;;-143.32;93.48;97561.13;4684115;30;20452;-91
2021/01/15 23:20:21;;;;;;;24.50;13.03;;;0.20;1.00;;;-143.32;93.76;97600.00;4683241;30;20456;-93
2021/01/15 23:22:51;;;;;;;23.40;12.97;;;0.30;99.90;;;-143.32;93.86;97542.72;4683425;30;20500;-93
2021/01/15 23:25:20;;;;;;;21.00;12.80;;;0.20;1.00;;;-143.32;94.25;97616.38;4683798;30;20437;-92
2021/01/15 23:27:48;;;;;;;20.67;12.10;;;0.30;11.70;;;-143.32;94.03;97587.72;4683376;30;20476;-93
2021/01/15 23:30:17;;;;;;;23.00;12.70;;;0.30;1.00;;;-143.32;94.35;97602.03;4683503;30;20475;-93